Connexion S'enregistrer

Connexion à votre compte

Identifiant
Mot de passe
Maintenir la connexion active sur ce site

Créer un compte

Pour valider ce formulaire, vous devez remplir tous les champs.
Nom
Identifiant
Mot de passe
Répétez le mot de passe
Adresse e-mail
Répétez l'adresse e-mail

METAR/TAF de Chambéry

[source: ADDS]
METAR / TAF
LFLB 231600Z AUTO 01007KT CAVOK 04/M01 Q1030 NOSIG =
TAF LFLB 231400Z 2315/2415 02005KT CAVOK PROB30 TEMPO 2400/2408 3000 BR

SR / SS: 07:07 / 16:29 UTC (Lever/Coucher du soleil le 2022-01-23)

 

Webcam de l'Aéroclub - Parking Lima et SW (réactualisation : 5min)

Cliquer ici pour une animation sur les 3 dernières heures / Cliquer sur l'image pour l'agrandir dans une nouvelle fenêtre

 

Webcam de l'Aéroclub - Manche à air et WA (réactualisation : 5min)

Cliquer ici pour une animation sur les 3 dernières heures / Cliquer sur l'image pour l'agrandir dans une nouvelle fenêtre

 

 

Webcams Tierces :

 

Webcam Belvédère du Revard - 360-SW-WA-EY-NL / 4955ft

Webcam Décollage parapente Pragondran - WA-NL / 2970ft

Webcam Bourget du Lac - 360-WA-EY

Webcam port d'Aix les Bains - 360

Webcam Belvédère d'Ontex- Vers l'est - EY / 1985ft

Webcam Belvédère de la Chambotte - Vers l'Ouest - WA-NL / 2200ft

Webcam port de Chatillon - 360-NL

Webcam La Motte Servolex - Vers l'Est - Croix du Nivolet / 1065ft

Webcam Aérodrome de Challes - LFLE - Vers l'Est - Mont St Michel

JSN Boot template designed by JoomlaShine.com